sensor_id;sensor_type;location;lat;lon;timestamp;temperature;humidity
36790;DHT22;22740;52.182;8.780;2022-12-11T00:01:07;-0.20;99.90
36790;DHT22;22740;52.182;8.780;2022-12-11T00:07:08;-0.20;99.90
36790;DHT22;22740;52.182;8.780;2022-12-11T00:13:10;-0.20;99.90
36790;DHT22;22740;52.182;8.780;2022-12-11T00:19:12;-0.30;99.90
36790;DHT22;22740;52.182;8.780;2022-12-11T00:25:13;-0.20;99.90
36790;DHT22;22740;52.182;8.780;2022-12-11T00:31:16;-0.30;99.90
36790;DHT22;22740;52.182;8.780;2022-12-11T00:37:18;-0.30;99.90
36790;DHT22;22740;52.182;8.780;2022-12-11T00:43:20;-0.20;99.90
36790;DHT22;22740;52.182;8.780;2022-12-11T00:49:21;-0.20;99.90
36790;DHT22;22740;52.182;8.780;2022-12-11T00:55:23;-0.20;99.90
36790;DHT22;22740;52.182;8.780;2022-12-11T01:01:25;-0.20;99.90
36790;DHT22;22740;52.182;8.780;2022-12-11T01:07:27;-0.20;99.90
36790;DHT22;22740;52.182;8.780;2022-12-11T01:13:29;-0.20;99.90
36790;DHT22;22740;52.182;8.780;2022-12-11T01:19:31;-0.30;99.90
36790;DHT22;22740;52.182;8.780;2022-12-11T01:25:34;-0.30;99.90
36790;DHT22;22740;52.182;8.780;2022-12-11T01:31:38;-0.30;99.90
36790;DHT22;22740;52.182;8.780;2022-12-11T01:37:40;-0.30;99.90
36790;DHT22;22740;52.182;8.780;2022-12-11T01:43:55;-0.30;99.90
36790;DHT22;22740;52.182;8.780;2022-12-11T01:49:57;-0.30;99.90
36790;DHT22;22740;52.182;8.780;2022-12-11T01:55:58;-0.40;99.90
36790;DHT22;22740;52.182;8.780;2022-12-11T02:02:08;-0.40;99.90
36790;DHT22;22740;52.182;8.780;2022-12-11T02:08:12;-0.40;99.90
36790;DHT22;22740;52.182;8.780;2022-12-11T02:27:00;-0.30;99.90
36790;DHT22;22740;52.182;8.780;2022-12-11T02:33:03;-0.40;99.90
36790;DHT22;22740;52.182;8.780;2022-12-11T02:39:06;-0.30;99.90
36790;DHT22;22740;52.182;8.780;2022-12-11T02:45:10;-0.30;99.90
36790;DHT22;22740;52.182;8.780;2022-12-11T02:51:13;-0.30;99.90
36790;DHT22;22740;52.182;8.780;2022-12-11T02:57:25;-0.30;99.90
36790;DHT22;22740;52.182;8.780;2022-12-11T03:03:28;-0.20;99.90
36790;DHT22;22740;52.182;8.780;2022-12-11T03:09:30;-0.10;99.90
36790;DHT22;22740;52.182;8.780;2022-12-11T03:15:33;-0.20;99.90
36790;DHT22;22740;52.182;8.780;2022-12-11T03:34:27;-0.20;99.90
36790;DHT22;22740;52.182;8.780;2022-12-11T03:40:29;-0.20;99.90
36790;DHT22;22740;52.182;8.780;2022-12-11T03:46:34;-0.10;99.90
36790;DHT22;22740;52.182;8.780;2022-12-11T03:52:38;-0.20;99.90
36790;DHT22;22740;52.182;8.780;2022-12-11T03:58:46;-0.20;99.90
36790;DHT22;22740;52.182;8.780;2022-12-11T04:04:48;-0.20;99.90
36790;DHT22;22740;52.182;8.780;2022-12-11T04:10:49;-0.20;99.90
36790;DHT22;22740;52.182;8.780;2022-12-11T04:17:14;-0.30;99.90
36790;DHT22;22740;52.182;8.780;2022-12-11T04:23:36;-0.30;99.90
36790;DHT22;22740;52.182;8.780;2022-12-11T04:29:56;-0.30;99.90
36790;DHT22;22740;52.182;8.780;2022-12-11T04:35:58;-0.30;99.90
36790;DHT22;22740;52.182;8.780;2022-12-11T04:42:00;-0.30;99.90
36790;DHT22;22740;52.182;8.780;2022-12-11T04:48:02;-0.30;99.90
36790;DHT22;22740;52.182;8.780;2022-12-11T04:54:04;-0.30;99.90
36790;DHT22;22740;52.182;8.780;2022-12-11T05:00:07;-0.30;99.90
36790;DHT22;22740;52.182;8.780;2022-12-11T05:06:09;-0.30;99.90
36790;DHT22;22740;52.182;8.780;2022-12-11T05:12:11;-0.30;99.90
36790;DHT22;22740;52.182;8.780;2022-12-11T05:18:13;-0.40;99.90
36790;DHT22;22740;52.182;8.780;2022-12-11T05:24:14;-0.40;99.90
36790;DHT22;22740;52.182;8.780;2022-12-11T05:30:16;-0.40;99.90
36790;DHT22;22740;52.182;8.780;2022-12-11T05:36:26;-0.30;99.90
36790;DHT22;22740;52.182;8.780;2022-12-11T05:42:27;-0.30;99.90
36790;DHT22;22740;52.182;8.780;2022-12-11T05:48:29;-0.40;99.90
36790;DHT22;22740;52.182;8.780;2022-12-11T05:54:31;-0.30;99.90
36790;DHT22;22740;52.182;8.780;2022-12-11T06:00:33;-0.40;99.90
36790;DHT22;22740;52.182;8.780;2022-12-11T06:06:37;-0.30;99.90
36790;DHT22;22740;52.182;8.780;2022-12-11T06:12:38;-0.30;99.90
36790;DHT22;22740;52.182;8.780;2022-12-11T06:18:42;-0.40;99.90
36790;DHT22;22740;52.182;8.780;2022-12-11T06:24:44;-0.30;99.90
36790;DHT22;22740;52.182;8.780;2022-12-11T06:30:45;-0.30;99.90
36790;DHT22;22740;52.182;8.780;2022-12-11T06:36:47;-0.40;99.90
36790;DHT22;22740;52.182;8.780;2022-12-11T06:42:48;-0.40;99.90
36790;DHT22;22740;52.182;8.780;2022-12-11T06:48:50;-0.30;99.90
36790;DHT22;22740;52.182;8.780;2022-12-11T06:54:52;-0.30;99.90
36790;DHT22;22740;52.182;8.780;2022-12-11T07:00:54;-0.30;99.90
36790;DHT22;22740;52.182;8.780;2022-12-11T07:06:55;-0.20;99.90
36790;DHT22;22740;52.182;8.780;2022-12-11T07:12:57;-0.20;99.90
36790;DHT22;22740;52.182;8.780;2022-12-11T07:18:59;-0.20;99.90
36790;DHT22;22740;52.182;8.780;2022-12-11T07:25:01;-0.20;99.90
36790;DHT22;22740;52.182;8.780;2022-12-11T07:31:06;-0.10;99.90
36790;DHT22;22740;52.182;8.780;2022-12-11T07:37:08;-0.10;99.90
36790;DHT22;22740;52.182;8.780;2022-12-11T07:43:09;-0.20;99.90
36790;DHT22;22740;52.182;8.780;2022-12-11T07:49:11;-0.20;99.90
36790;DHT22;22740;52.182;8.780;2022-12-11T07:55:12;-0.10;99.90
36790;DHT22;22740;52.182;8.780;2022-12-11T08:01:15;-0.10;99.90
36790;DHT22;22740;52.182;8.780;2022-12-11T08:07:18;-0.20;99.90
36790;DHT22;22740;52.182;8.780;2022-12-11T08:13:20;-0.10;99.90
36790;DHT22;22740;52.182;8.780;2022-12-11T08:19:21;-0.10;99.90
36790;DHT22;22740;52.182;8.780;2022-12-11T08:25:23;-0.10;99.90
36790;DHT22;22740;52.182;8.780;2022-12-11T08:31:25;-0.10;99.90
36790;DHT22;22740;52.182;8.780;2022-12-11T08:37:26;-0.10;99.90
36790;DHT22;22740;52.182;8.780;2022-12-11T08:43:29;-0.10;99.90
36790;DHT22;22740;52.182;8.780;2022-12-11T08:49:33;0.00;99.90
36790;DHT22;22740;52.182;8.780;2022-12-11T08:55:35;0.10;99.90
36790;DHT22;22740;52.182;8.780;2022-12-11T09:01:36;0.00;99.90
36790;DHT22;22740;52.182;8.780;2022-12-11T09:07:38;0.00;99.90
36790;DHT22;22740;52.182;8.780;2022-12-11T09:13:40;0.00;99.90
36790;DHT22;22740;52.182;8.780;2022-12-11T09:19:42;0.10;99.90
36790;DHT22;22740;52.182;8.780;2022-12-11T09:25:44;0.10;99.90
36790;DHT22;22740;52.182;8.780;2022-12-11T09:31:45;0.10;99.90
36790;DHT22;22740;52.182;8.780;2022-12-11T09:37:49;0.20;99.90
36790;DHT22;22740;52.182;8.780;2022-12-11T09:50:24;0.20;99.90
36790;DHT22;22740;52.182;8.780;2022-12-11T09:56:38;0.20;99.90
36790;DHT22;22740;52.182;8.780;2022-12-11T10:08:58;0.30;99.90
36790;DHT22;22740;52.182;8.780;2022-12-11T10:15:11;0.40;99.90
36790;DHT22;22740;52.182;8.780;2022-12-11T10:21:15;0.20;99.90
36790;DHT22;22740;52.182;8.780;2022-12-11T10:27:22;0.30;99.90
36790;DHT22;22740;52.182;8.780;2022-12-11T10:33:26;0.40;99.90
36790;DHT22;22740;52.182;8.780;2022-12-11T10:39:29;0.40;99.90
36790;DHT22;22740;52.182;8.780;2022-12-11T10:45:31;0.30;99.90
36790;DHT22;22740;52.182;8.780;2022-12-11T10:51:34;0.40;99.90
36790;DHT22;22740;52.182;8.780;2022-12-11T10:57:36;0.60;99.90
36790;DHT22;22740;52.182;8.780;2022-12-11T11:03:58;0.60;99.90
36790;DHT22;22740;52.182;8.780;2022-12-11T11:16:11;0.50;99.90
36790;DHT22;22740;52.182;8.780;2022-12-11T11:22:15;0.60;99.90
36790;DHT22;22740;52.182;8.780;2022-12-11T11:28:18;0.50;99.90
36790;DHT22;22740;52.182;8.780;2022-12-11T11:34:21;0.40;99.90
36790;DHT22;22740;52.182;8.780;2022-12-11T11:40:28;0.50;99.90
36790;DHT22;22740;52.182;8.780;2022-12-11T11:46:31;0.50;99.90
36790;DHT22;22740;52.182;8.780;2022-12-11T11:52:37;0.50;99.90
36790;DHT22;22740;52.182;8.780;2022-12-11T11:58:58;0.50;99.90
36790;DHT22;22740;52.182;8.780;2022-12-11T12:05:02;0.50;99.90
36790;DHT22;22740;52.182;8.780;2022-12-11T12:17:49;0.50;99.90
36790;DHT22;22740;52.182;8.780;2022-12-11T12:30:06;0.50;99.90
36790;DHT22;22740;52.182;8.780;2022-12-11T12:42:36;0.50;99.90
36790;DHT22;22740;52.182;8.780;2022-12-11T12:48:39;0.50;99.90
36790;DHT22;22740;52.182;8.780;2022-12-11T12:54:41;0.50;99.90
36790;DHT22;22740;52.182;8.780;2022-12-11T13:01:14;0.40;99.90
36790;DHT22;22740;52.182;8.780;2022-12-11T13:07:20;0.30;99.90
36790;DHT22;22740;52.182;8.780;2022-12-11T13:13:32;0.40;99.90
36790;DHT22;22740;52.182;8.780;2022-12-11T13:19:34;0.40;99.90
36790;DHT22;22740;52.182;8.780;2022-12-11T13:31:54;0.40;99.90
36790;DHT22;22740;52.182;8.780;2022-12-11T13:38:07;0.30;99.90
36790;DHT22;22740;52.182;8.780;2022-12-11T13:44:16;0.30;99.90
36790;DHT22;22740;52.182;8.780;2022-12-11T13:50:28;0.30;99.90
36790;DHT22;22740;52.182;8.780;2022-12-11T13:56:30;0.20;99.90
36790;DHT22;22740;52.182;8.780;2022-12-11T14:02:35;0.10;99.90
36790;DHT22;22740;52.182;8.780;2022-12-11T14:08:40;0.20;99.90
36790;DHT22;22740;52.182;8.780;2022-12-11T14:14:44;0.20;99.90
36790;DHT22;22740;52.182;8.780;2022-12-11T14:20:52;0.10;99.90
36790;DHT22;22740;52.182;8.780;2022-12-11T14:26:54;0.10;99.90
36790;DHT22;22740;52.182;8.780;2022-12-11T14:32:57;0.10;99.90
36790;DHT22;22740;52.182;8.780;2022-12-11T14:39:01;0.00;99.90
36790;DHT22;22740;52.182;8.780;2022-12-11T14:45:07;0.10;99.90
36790;DHT22;22740;52.182;8.780;2022-12-11T14:51:13;0.00;99.90
36790;DHT22;22740;52.182;8.780;2022-12-11T14:57:17;-0.10;99.90
36790;DHT22;22740;52.182;8.780;2022-12-11T15:03:21;-0.10;99.90
36790;DHT22;22740;52.182;8.780;2022-12-11T15:15:44;-0.10;99.90
36790;DHT22;22740;52.182;8.780;2022-12-11T15:21:46;-0.10;99.90
36790;DHT22;22740;52.182;8.780;2022-12-11T15:27:52;-0.20;99.90
36790;DHT22;22740;52.182;8.780;2022-12-11T15:33:54;-0.20;99.90
36790;DHT22;22740;52.182;8.780;2022-12-11T15:39:57;-0.20;99.90
36790;DHT22;22740;52.182;8.780;2022-12-11T15:46:00;-0.20;99.90
36790;DHT22;22740;52.182;8.780;2022-12-11T15:52:01;-0.20;99.90
36790;DHT22;22740;52.182;8.780;2022-12-11T15:58:04;-0.20;99.90
36790;DHT22;22740;52.182;8.780;2022-12-11T16:04:07;-0.30;99.90
36790;DHT22;22740;52.182;8.780;2022-12-11T16:10:13;-0.30;99.90
36790;DHT22;22740;52.182;8.780;2022-12-11T16:16:14;-0.30;99.90
36790;DHT22;22740;52.182;8.780;2022-12-11T16:22:16;-0.20;99.90
36790;DHT22;22740;52.182;8.780;2022-12-11T16:28:19;-0.20;99.90
36790;DHT22;22740;52.182;8.780;2022-12-11T16:34:24;-0.20;99.90
36790;DHT22;22740;52.182;8.780;2022-12-11T16:40:26;-0.20;99.90
36790;DHT22;22740;52.182;8.780;2022-12-11T16:46:28;-0.30;99.90
36790;DHT22;22740;52.182;8.780;2022-12-11T16:52:30;-0.30;99.90
36790;DHT22;22740;52.182;8.780;2022-12-11T16:58:32;-0.20;99.90
36790;DHT22;22740;52.182;8.780;2022-12-11T17:04:33;-0.30;99.90
36790;DHT22;22740;52.182;8.780;2022-12-11T17:10:39;-0.30;99.90
36790;DHT22;22740;52.182;8.780;2022-12-11T17:16:41;-0.30;99.90
36790;DHT22;22740;52.182;8.780;2022-12-11T17:22:43;-0.30;99.90
36790;DHT22;22740;52.182;8.780;2022-12-11T17:28:46;-0.30;99.90
36790;DHT22;22740;52.182;8.780;2022-12-11T17:34:48;-0.20;99.90
36790;DHT22;22740;52.182;8.780;2022-12-11T17:40:50;-0.20;99.90
36790;DHT22;22740;52.182;8.780;2022-12-11T17:46:52;-0.30;99.90
36790;DHT22;22740;52.182;8.780;2022-12-11T17:52:54;-0.30;99.90
36790;DHT22;22740;52.182;8.780;2022-12-11T17:58:56;-0.20;99.90
36790;DHT22;22740;52.182;8.780;2022-12-11T18:04:58;-0.30;99.90
36790;DHT22;22740;52.182;8.780;2022-12-11T18:11:10;-0.30;99.90
36790;DHT22;22740;52.182;8.780;2022-12-11T18:17:12;-0.30;99.90
36790;DHT22;22740;52.182;8.780;2022-12-11T18:23:14;-0.30;99.90
36790;DHT22;22740;52.182;8.780;2022-12-11T18:29:16;-0.20;99.90
36790;DHT22;22740;52.182;8.780;2022-12-11T18:35:17;-0.20;99.90
36790;DHT22;22740;52.182;8.780;2022-12-11T18:41:19;-0.30;99.90
36790;DHT22;22740;52.182;8.780;2022-12-11T18:47:21;-0.30;99.90
36790;DHT22;22740;52.182;8.780;2022-12-11T18:53:23;-0.30;99.90
36790;DHT22;22740;52.182;8.780;2022-12-11T18:59:24;-0.40;99.90
36790;DHT22;22740;52.182;8.780;2022-12-11T19:05:27;-0.30;99.90
36790;DHT22;22740;52.182;8.780;2022-12-11T19:11:29;-0.40;99.90
36790;DHT22;22740;52.182;8.780;2022-12-11T19:17:31;-0.30;99.90
36790;DHT22;22740;52.182;8.780;2022-12-11T19:23:33;-0.30;99.90
36790;DHT22;22740;52.182;8.780;2022-12-11T19:29:35;-0.40;99.90
36790;DHT22;22740;52.182;8.780;2022-12-11T19:35:37;-0.40;99.90
36790;DHT22;22740;52.182;8.780;2022-12-11T19:41:39;-0.40;99.90
36790;DHT22;22740;52.182;8.780;2022-12-11T19:47:41;-0.30;99.90
36790;DHT22;22740;52.182;8.780;2022-12-11T19:53:43;-0.30;99.90
36790;DHT22;22740;52.182;8.780;2022-12-11T19:59:45;-0.50;99.90
36790;DHT22;22740;52.182;8.780;2022-12-11T20:06:03;-0.50;99.90
36790;DHT22;22740;52.182;8.780;2022-12-11T20:12:05;-0.50;99.90
36790;DHT22;22740;52.182;8.780;2022-12-11T20:18:10;-0.50;99.90
36790;DHT22;22740;52.182;8.780;2022-12-11T20:24:19;-0.40;99.90
36790;DHT22;22740;52.182;8.780;2022-12-11T20:30:21;-0.40;99.90
36790;DHT22;22740;52.182;8.780;2022-12-11T20:36:26;-0.50;99.90
36790;DHT22;22740;52.182;8.780;2022-12-11T20:42:27;-0.50;99.90
36790;DHT22;22740;52.182;8.780;2022-12-11T20:48:29;-0.50;99.90
36790;DHT22;22740;52.182;8.780;2022-12-11T20:54:31;-0.60;99.90
36790;DHT22;22740;52.182;8.780;2022-12-11T21:00:33;-0.60;99.90
36790;DHT22;22740;52.182;8.780;2022-12-11T21:06:36;-0.60;99.90
36790;DHT22;22740;52.182;8.780;2022-12-11T21:12:39;-0.60;99.90
36790;DHT22;22740;52.182;8.780;2022-12-11T21:18:40;-0.60;99.90
36790;DHT22;22740;52.182;8.780;2022-12-11T21:24:44;-0.50;99.90
36790;DHT22;22740;52.182;8.780;2022-12-11T21:30:46;-0.70;99.90
36790;DHT22;22740;52.182;8.780;2022-12-11T21:36:48;-0.60;99.90
36790;DHT22;22740;52.182;8.780;2022-12-11T21:42:49;-0.70;99.90
36790;DHT22;22740;52.182;8.780;2022-12-11T21:48:51;-0.90;99.90
36790;DHT22;22740;52.182;8.780;2022-12-11T21:54:53;-0.90;99.90
36790;DHT22;22740;52.182;8.780;2022-12-11T22:00:56;-0.90;99.90
36790;DHT22;22740;52.182;8.780;2022-12-11T22:06:58;-1.00;99.90
36790;DHT22;22740;52.182;8.780;2022-12-11T22:13:00;-1.00;99.90
36790;DHT22;22740;52.182;8.780;2022-12-11T22:19:01;-1.00;99.90
36790;DHT22;22740;52.182;8.780;2022-12-11T22:25:03;-1.00;99.90
36790;DHT22;22740;52.182;8.780;2022-12-11T22:31:09;-1.10;99.90
36790;DHT22;22740;52.182;8.780;2022-12-11T22:37:11;-1.20;99.90
36790;DHT22;22740;52.182;8.780;2022-12-11T22:43:13;-1.20;99.90
36790;DHT22;22740;52.182;8.780;2022-12-11T22:49:14;-1.10;99.90
36790;DHT22;22740;52.182;8.780;2022-12-11T22:55:16;-1.10;99.90
36790;DHT22;22740;52.182;8.780;2022-12-11T23:01:20;-1.10;99.90
36790;DHT22;22740;52.182;8.780;2022-12-11T23:07:22;-1.20;99.90
36790;DHT22;22740;52.182;8.780;2022-12-11T23:13:23;-1.30;99.90
36790;DHT22;22740;52.182;8.780;2022-12-11T23:19:25;-1.30;99.90
36790;DHT22;22740;52.182;8.780;2022-12-11T23:25:27;-1.50;99.90
36790;DHT22;22740;52.182;8.780;2022-12-11T23:31:29;-1.60;99.90
36790;DHT22;22740;52.182;8.780;2022-12-11T23:37:30;-1.60;99.90
36790;DHT22;22740;52.182;8.780;2022-12-11T23:43:33;-1.60;99.90
36790;DHT22;22740;52.182;8.780;2022-12-11T23:49:35;-1.70;99.90
36790;DHT22;22740;52.182;8.780;2022-12-11T23:55:37;-1.80;99.90
